Time;durP1;ratioP1;P1;durP2;ratioP2;P2;SDS_P1;SDS_P2;PMS_P1;PMS_P2;Temp;Humidity;BMP_temperature;BMP_pressure;BME280_temperature;BME280_humidity;BME280_pressure;Samples;Min_cycle;Max_cycle;Signal;HPM_P1;HPM_P2
2021/08/01 00:00:07;;;;;;;14.98;11.53;;;;;;;23.45;58.23;98822.39;1752233;81;21547;-42
2021/08/01 00:02:35;;;;;;;19.60;11.22;;;;;;;23.43;58.33;98821.43;1761970;80;20969;-42
2021/08/01 00:05:02;;;;;;;13.55;10.95;;;;;;;23.41;58.08;98823.91;1716753;83;21521;-42
2021/08/01 00:07:28;;;;;;;20.57;12.20;;;;;;;23.39;58.59;98823.58;1756995;81;21736;-42
2021/08/01 00:09:59;;;;;;;13.83;11.25;;;;;;;23.37;58.63;98815.77;1764115;81;21514;-42
2021/08/01 00:12:27;;;;;;;14.95;11.08;;;;;;;23.36;58.85;98813.44;1764666;81;21586;-42
2021/08/01 00:14:55;;;;;;;14.30;10.45;;;;;;;23.35;59.13;98820.20;1764810;81;20996;-42
2021/08/01 00:17:22;;;;;;;12.80;10.43;;;;;;;23.37;59.09;98817.75;1757594;81;20998;-42
2021/08/01 00:19:49;;;;;;;14.60;10.15;;;;;;;23.43;59.04;98818.66;1767364;81;21795;-42
2021/08/01 00:22:15;;;;;;;14.80;11.22;;;;;;;23.48;58.95;98823.62;1746295;81;21523;-42
2021/08/01 00:24:42;;;;;;;14.70;10.90;;;;;;;23.47;59.16;98822.72;1767550;81;21014;-42
2021/08/01 00:27:09;;;;;;;16.52;11.08;;;;;;;23.45;59.39;98830.69;1762209;81;21506;-42
2021/08/01 00:29:36;;;;;;;15.43;10.88;;;;;;;23.39;59.27;98824.35;1756418;81;21063;-42
2021/08/01 00:32:05;;;;;;;14.33;11.30;;;;;;;23.37;59.37;98824.06;1747146;81;21877;-42
2021/08/01 00:34:34;;;;;;;14.53;10.60;;;;;;;23.36;59.19;98832.81;1755186;81;20988;-42
2021/08/01 00:37:00;;;;;;;16.50;11.45;;;;;;;23.27;59.04;98826.66;1762207;81;21041;-42
2021/08/01 00:39:28;;;;;;;14.05;11.25;;;;;;;23.18;59.25;98828.63;1757991;81;21055;-42
2021/08/01 00:41:56;;;;;;;19.42;12.00;;;;;;;23.12;59.72;98824.30;1737003;81;20998;-42
2021/08/01 00:44:23;;;;;;;14.23;11.68;;;;;;;23.09;59.67;98823.08;1762179;81;21812;-42
2021/08/01 00:46:50;;;;;;;17.23;11.57;;;;;;;23.05;59.57;98821.04;1758163;81;20930;-42
2021/08/01 00:49:18;;;;;;;14.65;11.78;;;;;;;23.04;59.67;98825.05;1755965;81;21617;-42
2021/08/01 00:51:45;;;;;;;17.55;11.63;;;;;;;23.02;59.87;98817.81;1771751;81;21007;-42
2021/08/01 00:54:12;;;;;;;17.00;11.33;;;;;;;23.02;59.99;98826.88;1756754;81;21029;-42
2021/08/01 00:56:39;;;;;;;18.70;10.80;;;;;;;23.06;59.97;98821.20;1757200;81;21176;-42
2021/08/01 00:59:06;;;;;;;14.83;10.48;;;;;;;23.13;60.09;98823.70;1757709;81;21610;-42
2021/08/01 01:01:47;;;;;;;20.43;11.55;;;;;;;23.17;59.89;98820.94;1763774;81;21566;-42
2021/08/01 01:04:35;;;;;;;16.35;11.75;;;;;;;23.19;59.97;98824.64;1762863;81;20949;-42
2021/08/01 01:07:21;;;;;;;18.50;10.93;;;;;;;23.20;60.14;98817.86;1740500;81;21565;-42
2021/08/01 01:10:01;;;;;;;16.05;11.18;;;;;;;23.19;60.19;98816.34;1731275;81;21030;-42
2021/08/01 01:12:53;;;;;;;16.20;12.25;;;;;;;23.17;60.34;98809.88;1748553;81;20961;-42
2021/08/01 01:15:23;;;;;;;20.32;11.68;;;;;;;23.13;60.23;98802.34;1747371;81;21559;-42
2021/08/01 01:17:53;;;;;;;16.75;11.38;;;;;;;23.07;60.54;98797.25;1761652;80;20995;-42
2021/08/01 01:20:29;;;;;;;17.37;11.85;;;;;;;23.03;60.74;98798.63;1743512;82;21022;-42
2021/08/01 01:23:33;;;;;;;16.48;11.80;;;;;;;22.96;60.93;98795.52;1716351;81;21175;-42
2021/08/01 01:26:38;;;;;;;17.10;10.68;;;;;;;22.96;60.98;98799.06;1742611;81;21560;-42
2021/08/01 01:29:21;;;;;;;16.75;10.28;;;;;;;22.95;61.24;98803.05;1750430;81;21009;-42
2021/08/01 01:32:10;;;;;;;13.50;11.18;;;;;;;22.92;61.24;98797.67;1743167;82;20982;-42
2021/08/01 01:34:45;;;;;;;16.77;12.28;;;;;;;22.89;61.47;98795.83;1757408;81;21024;-42
2021/08/01 01:37:14;;;;;;;16.27;11.88;;;;;;;22.83;61.62;98787.36;1725069;81;21185;-42
2021/08/01 01:39:42;;;;;;;16.30;11.83;;;;;;;22.79;61.67;98785.35;1728611;81;21453;-42
2021/08/01 01:42:15;;;;;;;17.92;11.12;;;;;;;22.77;61.83;98787.79;1751123;81;21025;-42
2021/08/01 01:44:49;;;;;;;17.35;12.03;;;;;;;22.71;61.90;98795.13;1752855;81;21009;-42
2021/08/01 01:47:17;;;;;;;15.40;11.63;;;;;;;22.69;61.78;98791.27;1763976;81;21002;-42
2021/08/01 01:49:44;;;;;;;17.50;11.20;;;;;;;22.66;61.91;98799.84;1751072;81;21507;-42
2021/08/01 01:52:16;;;;;;;13.78;11.00;;;;;;;22.66;62.00;98803.98;1742939;81;21008;-42
2021/08/01 01:54:44;;;;;;;13.62;11.35;;;;;;;22.71;61.71;98790.22;1742121;81;20977;-42
2021/08/01 01:57:13;;;;;;;16.27;11.70;;;;;;;22.74;61.62;98784.56;1743106;81;21081;-42
2021/08/01 01:59:40;;;;;;;15.25;11.10;;;;;;;22.76;61.87;98786.25;1748204;81;21556;-42
2021/08/01 02:02:10;;;;;;;16.97;11.63;;;;;;;22.76;61.85;98777.95;1750104;81;21195;-42
2021/08/01 02:04:37;;;;;;;17.27;11.05;;;;;;;22.76;61.45;98783.48;1746208;81;21069;-42
2021/08/01 02:07:22;;;;;;;12.55;11.20;;;;;;;22.76;61.45;98783.48;1755736;81;21002;-42
2021/08/01 02:10:12;;;;;;;16.55;11.43;;;;;;;22.71;61.63;98784.08;1743200;81;21627;-42
2021/08/01 02:12:54;;;;;;;15.50;11.73;;;;;;;22.71;61.26;98792.97;1744574;81;21037;-42
2021/08/01 02:15:34;;;;;;;17.52;11.20;;;;;;;22.66;60.99;98778.34;1752700;81;21045;-42
2021/08/01 02:18:08;;;;;;;17.35;11.85;;;;;;;;;;1764009;80;23306;-42
2021/08/01 02:20:42;;;;;;;15.53;11.88;;;;;;;22.58;60.87;98786.15;1753073;81;21053;-42
2021/08/01 02:23:23;;;;;;;14.78;11.63;;;;;;;22.60;61.04;98784.33;1752159;81;21041;-42
2021/08/01 02:25:54;;;;;;;15.80;12.13;;;;;;;22.65;61.22;98790.03;1762079;80;21500;-42
2021/08/01 02:28:24;;;;;;;15.98;11.65;;;;;;;22.69;61.43;98782.37;1760457;81;21095;-42
2021/08/01 02:30:53;;;;;;;15.20;11.85;;;;;;;22.71;61.36;98793.75;1758759;81;20993;-42
2021/08/01 02:33:20;;;;;;;15.60;11.88;;;;;;;22.73;61.66;98796.06;1751417;81;20946;-42
2021/08/01 02:35:47;;;;;;;16.05;11.45;;;;;;;22.74;61.52;98797.00;1748687;82;21065;-42
2021/08/01 02:38:14;;;;;;;18.85;12.10;;;;;;;22.76;61.68;98794.53;1749776;81;21024;-42
2021/08/01 02:40:41;;;;;;;23.20;13.38;;;;;;;22.77;61.66;98795.31;1743600;82;21115;-42
2021/08/01 02:43:10;;;;;;;18.95;13.18;;;;;;;22.75;61.79;98794.38;1738236;80;20929;-42
2021/08/01 02:45:42;;;;;;;32.88;14.65;;;;;;;22.77;61.75;98798.84;1742310;80;20969;-42
2021/08/01 02:48:10;;;;;;;48.58;17.15;;;;;;;22.82;61.81;98796.87;1718925;83;21037;-42
2021/08/01 02:50:39;;;;;;;21.73;12.05;;;;;;;22.84;61.68;98794.43;1717012;82;20973;-42
2021/08/01 02:53:15;;;;;;;27.37;12.73;;;;;;;22.86;61.92;98795.34;1740272;80;21834;-42
2021/08/01 02:55:43;;;;;;;29.18;12.90;;;;;;;22.88;62.29;98795.66;1737710;82;21048;-42
2021/08/01 02:58:11;;;;;;;16.60;11.93;;;;;;;22.89;62.47;98795.22;1747264;82;20933;-43
2021/08/01 03:00:39;;;;;;;15.28;11.08;;;;;;;22.87;62.46;98789.36;1733201;80;21049;-43
2021/08/01 03:03:07;;;;;;;16.25;11.43;;;;;;;22.87;62.51;98794.12;1746216;82;21032;-43
2021/08/01 03:05:34;;;;;;;15.23;10.72;;;;;;;22.86;62.46;98798.88;1740818;82;21097;-43
2021/08/01 03:08:01;;;;;;;13.28;10.80;;;;;;;22.88;62.54;98797.81;1749305;81;21811;-43
2021/08/01 03:10:29;;;;;;;13.62;10.60;;;;;;;22.92;62.42;98797.06;1746993;81;21449;-43
2021/08/01 03:12:56;;;;;;;13.30;11.28;;;;;;;22.96;62.23;98804.59;1745474;81;21096;-43
2021/08/01 03:15:24;;;;;;;13.25;10.08;;;;;;;23.00;61.92;98806.44;1744106;81;21077;-43
2021/08/01 03:17:51;;;;;;;16.10;11.33;;;;;;;23.03;62.12;98806.92;1718373;81;21149;-43
2021/08/01 03:20:19;;;;;;;17.92;11.57;;;;;;;23.05;62.18;98809.98;1752848;81;21016;-43
2021/08/01 03:23:04;;;;;;;15.55;11.28;;;;;;;23.05;62.36;98813.52;1735652;81;21398;-43
2021/08/01 03:25:34;;;;;;;17.02;11.35;;;;;;;23.02;62.39;98813.67;1745283;81;21095;-43
2021/08/01 03:28:03;;;;;;;16.05;10.43;;;;;;;23.01;62.15;98815.66;1751103;80;21049;-43
2021/08/01 03:33:00;;;;;;;12.65;10.93;;;;;;;23.13;62.19;98819.55;1807913;79;23427;-43
2021/08/01 03:35:27;;;;;;;13.55;11.38;;;;;;;23.04;61.52;98818.14;1778322;80;20985;-43
2021/08/01 03:37:57;;;;;;;15.38;11.78;;;;;;;23.05;61.70;98821.04;1777278;79;21096;-43
2021/08/01 03:40:43;;;;;;;13.90;10.88;;;;;;;23.08;61.96;98827.06;1768749;79;21503;-43
2021/08/01 03:43:10;;;;;;;13.50;11.33;;;;;;;23.11;62.57;98828.29;1780792;80;20949;-42
2021/08/01 03:45:37;;;;;;;12.55;10.58;;;;;;;23.14;62.99;98829.39;1790973;79;20952;-42
2021/08/01 03:48:05;;;;;;;16.55;11.00;;;;;;;23.16;62.99;98832.45;1784171;79;21525;-42
2021/08/01 03:50:32;;;;;;;12.30;10.20;;;;;;;23.20;63.05;98831.69;1756996;81;21601;-42
2021/08/01 03:52:59;;;;;;;15.08;11.40;;;;;;;23.25;62.97;98843.53;1756690;81;21120;-42
2021/08/01 03:55:26;;;;;;;14.98;10.45;;;;;;;23.37;62.83;98837.12;1793963;79;20922;-42
2021/08/01 03:57:53;;;;;;;15.32;11.80;;;;;;;23.47;62.63;98842.08;1795466;79;21510;-42
2021/08/01 04:00:19;;;;;;;15.00;10.75;;;;;;;23.54;62.77;98841.16;1790335;80;21522;-42
2021/08/01 04:02:46;;;;;;;14.65;11.57;;;;;;;23.62;62.56;98838.88;1812469;79;21766;-43
2021/08/01 04:05:12;;;;;;;12.65;11.35;;;;;;;23.68;62.54;98839.78;1805112;79;21781;-43
2021/08/01 04:07:39;;;;;;;14.53;11.43;;;;;;;23.74;62.45;98835.95;1782791;80;21498;-43
2021/08/01 04:10:07;;;;;;;15.20;11.25;;;;;;;23.77;62.28;98839.17;1763501;80;21508;-42
2021/08/01 04:12:34;;;;;;;18.90;11.57;;;;;;;23.80;62.24;98834.73;1785925;80;20972;-42
2021/08/01 04:15:02;;;;;;;13.55;10.65;;;;;;;23.86;61.99;98830.73;1788555;80;21956;-42
2021/08/01 04:17:31;;;;;;;13.30;11.20;;;;;;;23.91;61.99;98834.27;1783829;80;20944;-43
2021/08/01 04:19:57;;;;;;;14.90;11.40;;;;;;;23.97;62.11;98830.41;1731704;80;20973;-43
2021/08/01 04:22:25;;;;;;;14.05;11.03;;;;;;;24.02;61.73;98831.17;1776279;79;20942;-43
2021/08/01 04:24:53;;;;;;;14.05;11.00;;;;;;;24.06;61.60;98825.50;1787014;80;21649;-43
2021/08/01 04:27:20;;;;;;;13.68;10.90;;;;;;;24.11;61.46;98819.31;1787977;80;21543;-43
2021/08/01 04:29:47;;;;;;;15.43;11.28;;;;;;;24.14;61.40;98819.78;1772558;79;21284;-42
2021/08/01 04:32:14;;;;;;;14.13;11.20;;;;;;;24.19;61.27;98821.96;1777129;79;20986;-43
2021/08/01 04:34:40;;;;;;;13.30;11.55;;;;;;;24.24;61.09;98820.72;1766352;80;21024;-42
2021/08/01 04:37:07;;;;;;;14.40;11.18;;;;;;;24.26;61.36;98814.70;1777039;80;21017;-43
2021/08/01 04:39:34;;;;;;;12.30;10.53;;;;;;;24.31;61.50;98818.23;1767477;79;21111;-43
2021/08/01 04:42:01;;;;;;;14.90;11.55;;;;;;;24.38;61.40;98820.69;1765518;80;20974;-42
2021/08/01 04:44:28;;;;;;;13.55;11.35;;;;;;;24.46;61.41;98822.50;1779556;80;20976;-43
2021/08/01 04:46:54;;;;;;;13.30;11.03;;;;;;;24.52;61.07;98824.80;1777066;79;20942;-43
2021/08/01 04:49:21;;;;;;;15.18;11.93;;;;;;;24.57;60.75;98819.41;1780332;79;20981;-42
2021/08/01 04:51:48;;;;;;;14.47;11.53;;;;;;;24.63;60.49;98814.77;1749122;79;21135;-42
2021/08/01 04:54:15;;;;;;;13.05;11.53;;;;;;;24.68;60.39;98821.06;1704651;83;21532;-42
2021/08/01 04:56:45;;;;;;;19.17;11.80;;;;;;;24.75;60.13;98821.94;1765297;79;20970;-42
2021/08/01 04:59:12;;;;;;;;;;;;;;;24.80;60.24;98821.31;1755319;80;21089;-42
2021/08/01 05:01:41;;;;;;;15.32;12.03;;;;;;;24.83;60.12;98824.55;1757222;79;20516;-42
2021/08/01 05:04:08;;;;;;;14.65;11.00;;;;;;;24.80;60.07;98825.47;1767751;79;21874;-42
2021/08/01 05:06:34;;;;;;;11.95;10.75;;;;;;;24.86;59.92;98824.98;1750159;82;20934;-42
2021/08/01 05:09:01;;;;;;;16.15;10.68;;;;;;;24.91;59.42;98825.77;1755302;80;20935;-42
2021/08/01 05:11:28;;;;;;;12.68;10.35;;;;;;;24.96;58.98;98823.12;1764371;80;21029;-42
2021/08/01 05:13:54;;;;;;;12.35;9.90;;;;;;;25.04;58.92;98819.37;1756206;79;21706;-42
2021/08/01 05:16:21;;;;;;;14.70;10.90;;;;;;;25.14;58.80;98823.64;1767357;80;21900;-42
2021/08/01 05:18:48;;;;;;;11.22;9.73;;;;;;;25.24;58.70;98832.67;1776396;80;20986;-42
2021/08/01 05:21:21;;;;;;;16.12;10.58;;;;;;;25.33;58.65;98827.84;1761962;79;21025;-42
2021/08/01 05:23:48;;;;;;;13.72;10.65;;;;;;;25.40;58.56;98827.50;1775222;79;20962;-42
2021/08/01 05:26:16;;;;;;;11.75;9.78;;;;;;;25.47;58.41;98821.58;1742408;82;21065;-42
2021/08/01 05:28:43;;;;;;;13.83;10.38;;;;;;;25.55;58.47;98816.48;1752501;80;21096;-42
2021/08/01 05:31:09;;;;;;;13.55;11.43;;;;;;;25.63;58.42;98811.33;1773808;80;21097;-43
2021/08/01 05:33:37;;;;;;;13.80;9.88;;;;;;;25.69;58.34;98815.76;1773925;80;21076;-42
2021/08/01 05:36:07;;;;;;;13.10;10.35;;;;;;;25.75;58.62;98815.88;1771892;80;21625;-42
2021/08/01 05:38:35;;;;;;;16.80;10.48;;;;;;;25.79;59.00;98814.44;1748054;79;21046;-42
2021/08/01 05:41:02;;;;;;;14.90;9.90;;;;;;;25.90;58.88;98813.25;1742453;82;21784;-42
2021/08/01 05:43:28;;;;;;;13.25;9.35;;;;;;;26.00;58.22;98810.41;1742304;82;21241;-43
2021/08/01 05:45:55;;;;;;;13.28;9.80;;;;;;;26.09;58.29;98805.53;1748105;80;21442;-43
2021/08/01 05:48:22;;;;;;;12.23;9.60;;;;;;;26.19;57.95;98802.78;1773950;80;21058;-42
2021/08/01 05:50:49;;;;;;;10.35;9.30;;;;;;;26.31;57.62;98801.78;1796947;79;21021;-42
2021/08/01 05:53:20;;;;;;;12.63;9.95;;;;;;;26.44;57.49;98809.05;1782734;79;21280;-43
2021/08/01 05:55:45;;;;;;;12.67;10.07;;;;;;;26.57;56.89;98819.27;1800559;79;21535;-43
2021/08/01 05:58:12;;;;;;;16.12;10.30;;;;;;;26.66;56.69;98813.59;1776491;79;20934;-43
2021/08/01 06:00:38;;;;;;;14.18;10.38;;;;;;;26.78;56.44;98812.50;1762126;80;21267;-43
2021/08/01 06:03:05;;;;;;;17.40;11.60;;;;;;;26.91;55.89;98815.02;1755990;79;21029;-43
2021/08/01 06:05:32;;;;;;;11.57;9.85;;;;;;;26.95;55.23;98820.52;1800675;79;21113;-43
2021/08/01 06:07:58;;;;;;;15.05;10.75;;;;;;;26.97;55.12;98820.02;1800004;79;20991;-43
2021/08/01 06:10:25;;;;;;;14.25;10.93;;;;;;;26.98;55.43;98813.98;1782360;79;21587;-43
2021/08/01 06:12:52;;;;;;;14.90;9.83;;;;;;;27.00;55.69;98819.06;1773984;80;20974;-43
2021/08/01 06:15:20;;;;;;;11.83;9.78;;;;;;;27.00;56.01;98826.02;1774077;80;21038;-43
2021/08/01 06:17:47;;;;;;;11.38;10.18;;;;;;;27.01;56.35;98835.91;1773955;80;21113;-43
2021/08/01 06:20:16;;;;;;;12.35;10.80;;;;;;;27.03;56.36;98838.34;1769589;79;20902;-43
2021/08/01 06:22:42;;;;;;;16.83;10.53;;;;;;;27.03;56.40;98841.12;1768175;80;20977;-43
2021/08/01 06:25:10;;;;;;;15.32;11.12;;;;;;;27.02;56.57;98849.31;1773837;80;21025;-43
2021/08/01 06:27:36;;;;;;;11.73;10.08;;;;;;;27.01;56.40;98840.08;1787439;79;21803;-43
2021/08/01 06:30:05;;;;;;;12.13;10.08;;;;;;;26.99;56.55;98837.77;1748653;79;21897;-43
2021/08/01 06:32:31;;;;;;;13.18;10.43;;;;;;;27.00;56.80;98842.72;1748070;81;21020;-43
2021/08/01 06:34:58;;;;;;;12.15;10.08;;;;;;;26.92;55.86;98842.33;1750742;80;20941;-43
2021/08/01 06:37:24;;;;;;;15.70;10.55;;;;;;;26.81;56.80;98839.38;1752286;81;21000;-43
2021/08/01 06:39:52;;;;;;;12.25;9.95;;;;;;;26.78;57.20;98844.48;1763812;81;21033;-43
2021/08/01 06:42:18;;;;;;;15.15;10.08;;;;;;;26.77;57.47;98849.93;1749934;82;21563;-43
2021/08/01 06:44:45;;;;;;;13.95;9.88;;;;;;;26.79;57.33;98852.98;1751003;82;21578;-43
2021/08/01 06:47:11;;;;;;;13.72;10.75;;;;;;;26.78;57.45;98852.21;1751160;82;20977;-43
2021/08/01 06:49:39;;;;;;;12.68;10.38;;;;;;;26.80;57.82;98848.34;1751577;81;20994;-43
2021/08/01 06:52:06;;;;;;;14.05;10.58;;;;;;;26.80;57.42;98852.50;1749289;82;21029;-43
2021/08/01 06:54:32;;;;;;;15.38;11.10;;;;;;;26.81;57.63;98851.88;1755598;81;21763;-43
2021/08/01 06:57:00;;;;;;;14.03;11.60;;;;;;;26.87;57.47;98853.40;1758195;81;21029;-43
2021/08/01 06:59:26;;;;;;;16.77;11.05;;;;;;;26.94;56.98;98852.36;1750015;82;21004;-43
2021/08/01 07:01:54;;;;;;;14.60;10.98;;;;;;;27.00;56.16;98857.39;1750802;82;20977;-43
2021/08/01 07:04:20;;;;;;;14.63;11.60;;;;;;;27.02;56.00;98859.05;1751202;82;21071;-43
2021/08/01 07:06:47;;;;;;;12.13;10.45;;;;;;;27.08;56.12;98860.53;1750995;82;21189;-43
2021/08/01 07:09:14;;;;;;;15.05;11.08;;;;;;;27.16;56.07;98859.64;1751070;82;21596;-43
2021/08/01 07:11:41;;;;;;;12.55;11.12;;;;;;;27.25;56.52;98851.17;1764623;80;21049;-43
2021/08/01 07:14:07;;;;;;;14.45;11.25;;;;;;;27.38;56.71;98857.04;1751184;82;20950;-43
2021/08/01 07:16:44;;;;;;;13.60;10.45;;;;;;;27.49;55.99;98853.83;1751030;82;21001;-43
2021/08/01 07:19:11;;;;;;;13.00;11.03;;;;;;;27.57;55.88;98843.80;1750781;80;21293;-43
2021/08/01 07:21:38;;;;;;;13.55;10.50;;;;;;;27.68;55.48;98840.38;1741824;82;21038;-43
2021/08/01 07:24:05;;;;;;;14.10;10.23;;;;;;;27.76;55.06;98835.14;1751363;82;21106;-43
2021/08/01 07:26:32;;;;;;;14.68;11.15;;;;;;;27.85;54.92;98834.37;1751160;82;21151;-43
2021/08/01 07:28:59;;;;;;;14.30;11.15;;;;;;;27.96;54.67;98833.73;1750935;82;21069;-43
2021/08/01 07:31:26;;;;;;;13.80;11.00;;;;;;;28.05;54.59;98825.98;1750931;82;21129;-43
2021/08/01 07:33:53;;;;;;;12.82;10.72;;;;;;;28.17;54.16;98828.92;1765401;79;21097;-43
2021/08/01 07:36:19;;;;;;;13.48;11.22;;;;;;;28.25;54.25;98827.98;1757138;81;21034;-43
2021/08/01 07:38:47;;;;;;;13.05;11.53;;;;;;;28.37;54.08;98826.08;1764135;79;21072;-43
2021/08/01 07:41:13;;;;;;;12.40;10.70;;;;;;;28.45;53.83;98828.55;1792937;79;21064;-43
2021/08/01 07:43:40;;;;;;;14.40;11.33;;;;;;;28.56;53.58;98830.05;1745238;82;21098;-43
2021/08/01 07:46:07;;;;;;;15.48;11.22;;;;;;;28.69;53.33;98829.63;1742264;79;22670;-43
2021/08/01 07:48:34;;;;;;;12.50;10.72;;;;;;;28.81;53.24;98827.84;1754834;80;21033;-43
2021/08/01 07:51:01;;;;;;;13.45;11.95;;;;;;;28.91;52.79;98825.00;1750589;79;21009;-43
2021/08/01 07:53:28;;;;;;;13.13;11.83;;;;;;;29.01;52.21;98822.02;1751557;79;21053;-43
2021/08/01 07:55:55;;;;;;;17.82;11.50;;;;;;;29.08;51.94;98822.95;1751453;82;21071;-43
2021/08/01 07:58:21;;;;;;;14.33;11.28;;;;;;;29.17;52.29;98824.92;1783341;80;20917;-43
2021/08/01 08:00:48;;;;;;;13.53;11.18;;;;;;;29.29;52.46;98832.70;1783015;79;21487;-43
2021/08/01 08:03:15;;;;;;;13.40;11.25;;;;;;;29.43;52.02;98833.22;1782227;80;21041;-43
2021/08/01 08:05:41;;;;;;;14.63;11.60;;;;;;;29.54;51.82;98835.27;1782563;80;21037;-43
2021/08/01 08:08:08;;;;;;;15.13;11.45;;;;;;;29.68;51.63;98837.88;1781120;79;21137;-43
2021/08/01 08:10:36;;;;;;;12.80;11.30;;;;;;;29.80;51.47;98835.27;1780052;80;20936;-43
2021/08/01 08:13:03;;;;;;;12.95;10.70;;;;;;;29.96;51.41;98834.45;1781975;80;21521;-43
2021/08/01 08:15:32;;;;;;;16.50;11.30;;;;;;;30.09;50.81;98836.90;1781782;79;20893;-43
2021/08/01 08:18:01;;;;;;;13.32;11.20;;;;;;;30.16;50.83;98835.66;1753533;80;21291;-43
2021/08/01 08:20:28;;;;;;;13.32;11.20;;;;;;;30.29;50.37;98836.55;1764546;80;21066;-43
2021/08/01 08:22:55;;;;;;;13.72;10.60;;;;;;;30.48;50.67;98836.98;1749554;82;20914;-43
2021/08/01 08:25:22;;;;;;;14.07;11.57;;;;;;;30.63;50.21;98843.73;1755787;80;21061;-43
2021/08/01 08:27:49;;;;;;;15.23;11.20;;;;;;;30.74;49.92;98847.17;1764298;79;20978;-43
2021/08/01 08:30:15;;;;;;;15.78;11.45;;;;;;;30.85;49.22;98844.34;1778180;80;21598;-43
2021/08/01 08:32:42;;;;;;;14.87;10.48;;;;;;;30.85;48.59;98840.14;1780457;79;21789;-43
2021/08/01 08:35:10;;;;;;;12.55;10.78;;;;;;;30.84;48.58;98840.05;1773637;80;21079;-43
2021/08/01 08:37:46;;;;;;;14.40;10.98;;;;;;;30.84;49.13;98839.38;1771747;80;21065;-43
2021/08/01 08:40:13;;;;;;;16.60;11.28;;;;;;;30.83;48.34;98832.91;1774069;80;20973;-43
2021/08/01 08:42:46;;;;;;;16.02;11.10;;;;;;;30.69;48.45;98832.54;1774101;80;21032;-43
2021/08/01 08:45:15;;;;;;;15.63;10.65;;;;;;;30.56;48.95;98834.43;1774055;80;21778;-43
2021/08/01 08:47:44;;;;;;;12.95;10.90;;;;;;;30.52;49.33;98832.53;1744608;80;20962;-43
2021/08/01 08:50:18;;;;;;;14.18;10.93;;;;;;;30.55;49.52;98827.30;1742189;82;21022;-43
2021/08/01 08:52:45;;;;;;;15.90;10.93;;;;;;;30.52;49.69;98828.33;1769786;80;20968;-43
2021/08/01 08:55:14;;;;;;;13.53;11.40;;;;;;;30.55;49.76;98829.47;1790097;80;21025;-43
2021/08/01 08:57:47;;;;;;;13.05;11.12;;;;;;;30.64;49.80;98829.21;1772945;80;21765;-43
2021/08/01 09:00:15;;;;;;;15.95;11.15;;;;;;;30.69;50.03;98829.11;1773052;80;21022;-43
2021/08/01 09:02:42;;;;;;;15.32;10.72;;;;;;;30.80;50.33;98842.31;1764568;80;20997;-43
2021/08/01 09:05:09;;;;;;;16.32;11.48;;;;;;;30.87;49.48;98829.22;1762391;80;21010;-43
2021/08/01 09:07:43;;;;;;;15.05;11.18;;;;;;;30.93;50.47;98832.77;1771028;80;21026;-43
2021/08/01 09:10:09;;;;;;;13.60;10.93;;;;;;;31.00;49.79;98833.64;1744566;80;21448;-43
2021/08/01 09:12:43;;;;;;;16.27;11.15;;;;;;;31.05;49.76;98842.70;1766108;80;20990;-42
2021/08/01 09:15:14;;;;;;;12.43;10.82;;;;;;;31.11;49.55;98843.45;1771826;79;21124;-42
2021/08/01 09:17:41;;;;;;;14.28;10.50;;;;;;;31.14;49.92;98842.42;1769116;79;21005;-42
2021/08/01 09:20:31;;;;;;;14.18;10.80;;;;;;;31.21;49.83;98838.34;1773576;79;21125;-42
2021/08/01 09:23:11;;;;;;;12.55;10.35;;;;;;;31.29;49.49;98833.09;1744880;80;21167;-42
2021/08/01 09:25:41;;;;;;;14.13;10.88;;;;;;;31.36;48.81;98838.81;1764606;79;21017;-42
2021/08/01 09:28:16;;;;;;;13.00;10.98;;;;;;;31.33;48.51;98842.63;1726941;81;21689;-42
2021/08/01 09:30:58;;;;;;;11.93;10.13;;;;;;;31.26;48.65;98838.97;1762436;80;21072;-42
2021/08/01 09:33:44;;;;;;;11.48;10.23;;;;;;;31.21;49.44;98841.91;1768952;80;21080;-42
2021/08/01 09:36:21;;;;;;;14.15;10.58;;;;;;;31.24;49.62;98835.27;1777736;80;22073;-42
2021/08/01 09:38:51;;;;;;;16.10;10.15;;;;;;;31.34;49.38;98846.33;1776731;80;21119;-42
2021/08/01 09:41:34;;;;;;;13.03;11.03;;;;;;;31.44;49.50;98847.58;1740300;81;21028;-41
2021/08/01 09:44:11;;;;;;;15.53;11.08;;;;;;;31.53;49.34;98845.75;1773943;79;21785;-42
2021/08/01 09:46:47;;;;;;;13.62;10.63;;;;;;;31.60;48.31;98836.22;1771868;79;22388;-42
2021/08/01 09:49:16;;;;;;;12.45;10.38;;;;;;;31.64;48.96;98844.34;1739617;81;21140;-42
2021/08/01 09:51:48;;;;;;;12.90;10.38;;;;;;;31.78;49.60;98846.83;1776414;80;21033;-42
2021/08/01 09:54:17;;;;;;;15.30;10.55;;;;;;;31.92;48.33;98844.98;1770438;79;20991;-42
2021/08/01 09:56:55;;;;;;;15.43;10.37;;;;;;;32.04;48.74;98844.29;1776177;79;21782;-42
2021/08/01 09:59:25;;;;;;;14.58;10.82;;;;;;;32.10;48.60;98837.38;1760043;80;21578;-42
2021/08/01 10:01:58;;;;;;;15.25;10.20;;;;;;;32.09;47.76;98838.66;1768454;79;21134;-42
2021/08/01 10:04:43;;;;;;;18.02;9.63;;;;;;;32.09;48.25;98833.67;1774093;79;21036;-42
2021/08/01 10:07:15;;;;;;;12.37;9.85;;;;;;;32.10;47.35;98831.77;1774941;79;22373;-42
2021/08/01 10:09:44;;;;;;;13.30;9.28;;;;;;;31.97;47.52;98830.80;1783323;79;21026;-42
2021/08/01 10:12:12;;;;;;;10.55;9.18;;;;;;;31.79;47.28;98823.77;1781353;79;21374;-42
2021/08/01 10:14:39;;;;;;;14.43;9.40;;;;;;;31.58;48.15;98826.79;1774010;79;21101;-43
2021/08/01 10:17:06;;;;;;;13.95;10.03;;;;;;;31.42;49.01;98820.70;1775761;80;21647;-42
2021/08/01 10:19:35;;;;;;;14.43;10.13;;;;;;;31.27;49.35;98821.66;1775518;80;20898;-42
2021/08/01 10:22:04;;;;;;;11.83;9.13;;;;;;;31.07;49.82;98819.16;1780964;80;21016;-42
2021/08/01 10:24:38;;;;;;;10.65;9.53;;;;;;;30.90;50.46;98818.38;1780053;80;21103;-42
2021/08/01 10:27:08;;;;;;;12.37;8.63;;;;;;;30.65;49.99;98827.95;1774505;79;21124;-42
2021/08/01 10:29:45;;;;;;;11.57;9.08;;;;;;;30.39;50.89;98840.00;1773950;79;21045;-42
2021/08/01 10:32:13;;;;;;;13.10;9.83;;;;;;;30.11;50.22;98843.39;1737280;81;21104;-42
2021/08/01 10:34:54;;;;;;;15.13;11.15;;;;;;;29.79;51.61;98842.12;1709219;82;21074;-42
2021/08/01 10:37:26;;;;;;;13.78;8.73;;;;;;;29.54;52.88;98847.21;1712147;83;21042;-42
2021/08/01 10:39:53;;;;;;;14.38;7.58;;;;;;;29.21;49.65;98860.97;1718653;82;22143;-42
2021/08/01 10:42:24;;;;;;;9.28;5.20;;;;;;;28.81;48.54;98864.73;1710360;82;21528;-42
2021/08/01 10:44:53;;;;;;;8.98;4.70;;;;;;;28.39;47.58;98883.48;1711610;83;21105;-41
2021/08/01 10:47:19;;;;;;;8.93;4.72;;;;;;;28.00;47.17;98894.19;1720608;81;21078;-42
2021/08/01 10:49:48;;;;;;;7.67;4.58;;;;;;;27.68;47.99;98896.09;1719667;82;21728;-42
2021/08/01 10:52:17;;;;;;;8.63;4.92;;;;;;;27.47;48.96;98902.84;1769864;80;21142;-41
2021/08/01 10:55:04;;;;;;;5.15;3.80;;;;;;;27.38;49.31;98889.05;1772216;80;21434;-42
2021/08/01 10:57:33;;;;;;;7.20;4.30;;;;;;;27.28;49.00;98865.37;1766904;80;21524;-41
2021/08/01 11:00:04;;;;;;;5.05;3.52;;;;;;;27.10;48.58;98835.78;1765335;80;20970;-42
2021/08/01 11:02:32;;;;;;;3.30;3.00;;;;;;;27.06;49.36;98829.66;1772952;79;21033;-42
2021/08/01 11:05:20;;;;;;;5.40;3.63;;;;;;;27.06;50.12;98831.79;1766906;79;21120;-41
2021/08/01 11:07:55;;;;;;;7.75;3.75;;;;;;;27.08;49.38;98842.45;1636715;85;21062;-42
2021/08/01 11:10:23;;;;;;;5.80;3.77;;;;;;;27.06;51.32;98851.27;1738142;79;20973;-42
2021/08/01 11:12:50;;;;;;;8.03;4.25;;;;;;;27.01;50.77;98845.03;1772235;79;21005;-42
2021/08/01 11:15:17;;;;;;;6.92;4.58;;;;;;;27.04;51.91;98841.27;1771329;79;21049;-41
2021/08/01 11:17:51;;;;;;;4.95;4.40;;;;;;;27.06;52.90;98844.31;1767472;79;21131;-41
2021/08/01 11:20:26;;;;;;;7.25;5.22;;;;;;;27.11;53.23;98853.37;1772266;79;21539;-41
2021/08/01 11:22:54;;;;;;;9.00;7.03;;;;;;;27.19;52.45;98848.95;1770273;79;21023;-41
2021/08/01 11:25:26;;;;;;;7.17;5.72;;;;;;;27.25;52.56;98847.64;1767585;79;20998;-41
2021/08/01 11:28:13;;;;;;;6.05;4.95;;;;;;;27.33;53.03;98852.16;1771344;79;21462;-41
2021/08/01 11:31:01;;;;;;;5.83;4.37;;;;;;;27.38;52.59;98847.30;1770229;79;21130;-41
2021/08/01 11:33:43;;;;;;;5.80;3.97;;;;;;;27.42;51.63;98843.68;1769630;79;21515;-42